Terminal Aerodrome Forecast
Issued by NWS Topeka, KS

Home | Current Version | Previous Version | Text Only | Print | Product List | Glossary Off
Versions: 1 2 3 4 5 6 7 8 9 10 11 12 13 14 15 16 17 18 19 20 21 22 23 24 25 26 27

201
FTUS43 KTOP 232334
TAFTOP
TAF
KTOP 232334Z 2400/2424 18015G23KT P6SM SCT035 BKN050
     FM240200 15009KT P6SM SCT120
     FM240500 18009KT P6SM VCTS BKN100CB WS020/22050KT
     FM240800 20008KT P6SM SCT150=

USA.gov is the U.S. government's official web portal to all federal, state and local government web resources and services.